• Join FlightAware (Why Join?)
  • Login
  • US Flag 
04:53AM EDT


 

Airport Tracker/Info


-or-


 

Live Flight TrackerFlight Track Log ✈ ZK-PBG ✈ 08-04-2013 ✈ NFFN / NAN - YSSY / SYD

Flight Track Log - Related Links

Times and Time Zones

All times are in EDT time to prevent confusion due to time zone crossing. See the ZK-PBG flight status page for this flight to view local times or setup timezone preferences in your user account.

Time Position Orientation Groundspeed Altitude Reporting Facility
EDT Latitude Longitude Course Direction KTS MPH feet Rate Location/Type
11:47PM -17.9445 177.1730 234° Southwest  Level FlightAware Approximate
11:48PM -18.0077 177.0826 234° Southwest  Level FlightAware Approximate
11:49PM -18.0709 176.9922 234° Southwest  Level FlightAware Approximate
11:50PM -18.1340 176.9018 234° Southwest  Level FlightAware Approximate
11:51PM -18.1971 176.8112 234° Southwest  Level FlightAware Approximate
11:52PM -18.2601 176.7206 234° Southwest  Level FlightAware Approximate
11:53PM -18.3231 176.6300 234° Southwest  Level FlightAware Approximate
11:54PM -18.3861 176.5392 234° Southwest  Level FlightAware Approximate
11:55PM -18.4490 176.4485 234° Southwest  Level FlightAware Approximate
11:56PM -18.5118 176.3576 234° Southwest  Level FlightAware Approximate
11:57PM -18.5746 176.2667 234° Southwest  Level FlightAware Approximate
11:58PM -18.6374 176.1757 234° Southwest  Level FlightAware Approximate
11:59PM -18.7001 176.0846 234° Southwest  Level FlightAware Approximate
12:00AM -18.7497 176.0176 230° Southwest  Level FlightAware Approximate
12:01AM -18.8178 175.9308 230° Southwest  Level FlightAware Approximate
12:02AM -18.8858 175.8440 230° Southwest  Level FlightAware Approximate
12:03AM -18.9538 175.7571 230° Southwest  Level FlightAware Approximate
12:04AM -19.0217 175.6702 230° Southwest  Level FlightAware Approximate
12:05AM -19.0896 175.5831 230° Southwest  Level FlightAware Approximate
12:06AM -19.1575 175.4960 230° Southwest  Level FlightAware Approximate
12:07AM -19.2253 175.4089 231° Southwest  Level FlightAware Approximate
12:08AM -19.2931 175.3216 231° Southwest  Level FlightAware Approximate
12:09AM -19.3608 175.2343 231° Southwest  Level FlightAware Approximate
12:10AM -19.4285 175.1469 231° Southwest  Level FlightAware Approximate
12:11AM -19.4962 175.0595 231° Southwest  Level FlightAware Approximate
12:12AM -19.5638 174.9719 231° Southwest  Level FlightAware Approximate
12:13AM -19.6314 174.8843 231° Southwest  Level FlightAware Approximate
12:14AM -19.6989 174.7966 231° Southwest  Level FlightAware Approximate
12:15AM -19.7664 174.7089 231° Southwest  Level FlightAware Approximate
12:16AM -19.8338 174.6210 231° Southwest  Level FlightAware Approximate
12:17AM -19.9012 174.5331 231° Southwest  Level FlightAware Approximate
12:18AM -19.9686 174.4451 231° Southwest  Level FlightAware Approximate
12:19AM -20.0359 174.3571 231° Southwest  Level FlightAware Approximate
12:20AM -20.1031 174.2690 231° Southwest  Level FlightAware Approximate
12:21AM -20.1704 174.1808 231° Southwest  Level FlightAware Approximate
12:22AM -20.2375 174.0925 231° Southwest  Level FlightAware Approximate
12:23AM -20.3047 174.0041 231° Southwest  Level FlightAware Approximate
12:24AM -20.3718 173.9157 231° Southwest  Level FlightAware Approximate
12:25AM -20.4388 173.8272 231° Southwest  Level FlightAware Approximate
12:26AM -20.5058 173.7386 231° Southwest  Level FlightAware Approximate
12:27AM -20.5728 173.6499 231° Southwest  Level FlightAware Approximate
12:28AM -20.6397 173.5612 231° Southwest  Level FlightAware Approximate
12:29AM -20.7066 173.4723 231° Southwest  Level FlightAware Approximate
12:30AM -20.7734 173.3834 231° Southwest  Level FlightAware Approximate
12:31AM -20.8402 173.2944 231° Southwest  Level FlightAware Approximate
12:32AM -20.9069 173.2054 231° Southwest  Level FlightAware Approximate
12:33AM -20.9736 173.1163 231° Southwest  Level FlightAware Approximate
12:34AM -21.0402 173.0270 231° Southwest  Level FlightAware Approximate
12:35AM -21.1068 172.9377 231° Southwest  Level FlightAware Approximate
12:36AM -21.1733 172.8483 231° Southwest  Level FlightAware Approximate
12:37AM -21.2398 172.7589 231° Southwest  Level FlightAware Approximate
12:38AM -21.3063 172.6694 231° Southwest  Level FlightAware Approximate
12:39AM -21.3727 172.5797 231° Southwest  Level FlightAware Approximate
12:40AM -21.4390 172.4900 232° Southwest  Level FlightAware Approximate
12:41AM -21.5053 172.4002 232° Southwest  Level FlightAware Approximate
12:42AM -21.5716 172.3104 232° Southwest  Level FlightAware Approximate
12:43AM -21.6378 172.2204 232° Southwest  Level FlightAware Approximate
12:44AM -21.7040 172.1304 232° Southwest  Level FlightAware Approximate
12:45AM -21.7701 172.0403 232° Southwest  Level FlightAware Approximate
12:46AM -21.8361 171.9501 232° Southwest  Level FlightAware Approximate
12:47AM -21.9021 171.8598 232° Southwest  Level FlightAware Approximate
12:48AM -21.9681 171.7694 232° Southwest  Level FlightAware Approximate
12:49AM -22.0340 171.6790 232° Southwest  Level FlightAware Approximate
12:50AM -22.0999 171.5885 232° Southwest  Level FlightAware Approximate
12:51AM -22.1657 171.4978 232° Southwest  Level FlightAware Approximate
12:52AM -22.2314 171.4071 232° Southwest  Level FlightAware Approximate
12:53AM -22.2971 171.3163 232° Southwest  Level FlightAware Approximate
12:54AM -22.3628 171.2254 232° Southwest  Level FlightAware Approximate
12:55AM -22.4284 171.1344 232° Southwest  Level FlightAware Approximate
12:56AM -22.4939 171.0434 232° Southwest  Level FlightAware Approximate
12:57AM -22.5594 170.9522 232° Southwest  Level FlightAware Approximate
12:58AM -22.6248 170.8610 232° Southwest  Level FlightAware Approximate
12:59AM -22.6902 170.7697 232° Southwest  Level FlightAware Approximate
01:00AM -22.7556 170.6783 232° Southwest  Level FlightAware Approximate
01:01AM -22.8209 170.5868 232° Southwest  Level FlightAware Approximate
01:02AM -22.8861 170.4952 232° Southwest  Level FlightAware Approximate
01:03AM -22.9513 170.4035 232° Southwest  Level FlightAware Approximate
01:04AM -23.0164 170.3118 232° Southwest  Level FlightAware Approximate
01:05AM -23.0815 170.2199 232° Southwest  Level FlightAware Approximate
01:06AM -23.1465 170.1280 232° Southwest  Level FlightAware Approximate
01:07AM -23.2115 170.0359 232° Southwest  Level FlightAware Approximate
01:08AM -23.2764 169.9438 232° Southwest  Level FlightAware Approximate
01:09AM -23.3413 169.8516 233° Southwest  Level FlightAware Approximate
01:10AM -23.4061 169.7593 233° Southwest  Level FlightAware Approximate
01:11AM -23.4708 169.6669 233° Southwest  Level FlightAware Approximate
01:12AM -23.5355 169.5745 233° Southwest  Level FlightAware Approximate
01:13AM -23.6002 169.4819 233° Southwest  Level FlightAware Approximate
01:14AM -23.6647 169.3892 233° Southwest  Level FlightAware Approximate
01:15AM -23.7293 169.2965 233° Southwest  Level FlightAware Approximate
01:16AM -23.7938 169.2036 233° Southwest  Level FlightAware Approximate
01:17AM -23.8582 169.1107 233° Southwest  Level FlightAware Approximate
01:18AM -23.9226 169.0177 233° Southwest  Level FlightAware Approximate
01:19AM -23.9869 168.9246 233° Southwest  Level FlightAware Approximate
01:20AM -24.0511 168.8314 233° Southwest  Level FlightAware Approximate
01:21AM -24.1153 168.7381 233° Southwest  Level FlightAware Approximate
01:22AM -24.1794 168.6447 233° Southwest  Level FlightAware Approximate
01:23AM -24.2435 168.5512 233° Southwest  Level FlightAware Approximate
01:24AM -24.3076 168.4576 233° Southwest  Level FlightAware Approximate
01:25AM -24.3715 168.3639 233° Southwest  Level FlightAware Approximate
01:26AM -24.4354 168.2701 233° Southwest  Level FlightAware Approximate
01:27AM -24.4993 168.1763 233° Southwest  Level FlightAware Approximate
01:28AM -24.5631 168.0823 233° Southwest  Level FlightAware Approximate
01:29AM -24.6268 167.9882 233° Southwest  Level FlightAware Approximate
01:30AM -24.6905 167.8941 233° Southwest  Level FlightAware Approximate
01:31AM -24.7541 167.7998 233° Southwest  Level FlightAware Approximate
01:32AM -24.8177 167.7055 233° Southwest  Level FlightAware Approximate
01:33AM -24.8812 167.6110 233° Southwest  Level FlightAware Approximate
01:34AM -24.9446 167.5164 233° Southwest  Level FlightAware Approximate
01:35AM -25.0079 167.4218 234° Southwest  Level FlightAware Approximate
01:36AM -25.0713 167.3270 234° Southwest  Level FlightAware Approximate
01:37AM -25.1345 167.2322 234° Southwest  Level FlightAware Approximate
01:38AM -25.1977 167.1372 234° Southwest  Level FlightAware Approximate
01:39AM -25.2608 167.0422 234° Southwest  Level FlightAware Approximate
01:40AM -25.3239 166.9470 234° Southwest  Level FlightAware Approximate
01:41AM -25.3869 166.8518 234° Southwest  Level FlightAware Approximate
01:42AM -25.4498 166.7564 234° Southwest  Level FlightAware Approximate
01:43AM -25.5127 166.6610 234° Southwest  Level FlightAware Approximate
01:44AM -25.5755 166.5654 234° Southwest  Level FlightAware Approximate
01:45AM -25.6382 166.4698 234° Southwest  Level FlightAware Approximate
01:46AM -25.7009 166.3740 234° Southwest  Level FlightAware Approximate
01:47AM -25.7636 166.2782 234° Southwest  Level FlightAware Approximate
01:48AM -25.8261 166.1822 234° Southwest  Level FlightAware Approximate
01:49AM -25.8886 166.0862 234° Southwest  Level FlightAware Approximate
01:50AM -25.9511 165.9900 234° Southwest  Level FlightAware Approximate
01:51AM -26.0135 165.8938 234° Southwest  Level FlightAware Approximate
01:52AM -26.0758 165.7974 234° Southwest  Level FlightAware Approximate
01:53AM -26.1380 165.7010 234° Southwest  Level FlightAware Approximate
01:54AM -26.2002 165.6044 234° Southwest  Level FlightAware Approximate
01:55AM -26.2623 165.5077 234° Southwest  Level FlightAware Approximate
01:56AM -26.3244 165.4110 234° Southwest  Level FlightAware Approximate
01:57AM -26.3864 165.3141 234° Southwest  Level FlightAware Approximate
01:58AM -26.4483 165.2171 234° Southwest  Level FlightAware Approximate
01:59AM -26.5102 165.1200 235° Southwest  Level FlightAware Approximate
02:00AM -26.5720 165.0229 235° Southwest  Level FlightAware Approximate
02:01AM -26.6337 164.9256 235° Southwest  Level FlightAware Approximate
02:02AM -26.6953 164.8282 235° Southwest  Level FlightAware Approximate
02:03AM -26.7569 164.7307 235° Southwest  Level FlightAware Approximate
02:04AM -26.8185 164.6331 235° Southwest  Level FlightAware Approximate
02:05AM -26.8799 164.5354 235° Southwest  Level FlightAware Approximate
02:06AM -26.9413 164.4375 235° Southwest  Level FlightAware Approximate
02:07AM -27.0026 164.3396 235° Southwest  Level FlightAware Approximate
02:08AM -27.0639 164.2416 235° Southwest  Level FlightAware Approximate
02:09AM -27.1251 164.1434 235° Southwest  Level FlightAware Approximate
02:10AM -27.1862 164.0452 235° Southwest  Level FlightAware Approximate
02:11AM -27.2473 163.9469 235° Southwest  Level FlightAware Approximate
02:12AM -27.3083 163.8484 235° Southwest  Level FlightAware Approximate
02:13AM -27.3692 163.7498 235° Southwest  Level FlightAware Approximate
02:14AM -27.4300 163.6511 235° Southwest  Level FlightAware Approximate
02:15AM -27.4908 163.5524 235° Southwest  Level FlightAware Approximate
02:16AM -27.5515 163.4534 235° Southwest  Level FlightAware Approximate
02:17AM -27.6122 163.3544 235° Southwest  Level FlightAware Approximate
02:18AM -27.6727 163.2553 235° Southwest  Level FlightAware Approximate
02:19AM -27.7332 163.1561 235° Southwest  Level FlightAware Approximate
02:20AM -27.7936 163.0568 235° Southwest  Level FlightAware Approximate
02:21AM -27.8540 162.9573 236° Southwest  Level FlightAware Approximate
02:22AM -27.9142 162.8578 236° Southwest  Level FlightAware Approximate
02:23AM -27.9744 162.7581 236° Southwest  Level FlightAware Approximate
02:24AM -28.0345 162.6583 236° Southwest  Level FlightAware Approximate
02:25AM -28.0946 162.5584 236° Southwest  Level FlightAware Approximate
02:26AM -28.1546 162.4583 236° Southwest  Level FlightAware Approximate
02:27AM -28.2151 162.3571 236° Southwest  Level FlightAware Approximate
02:28AM -28.2756 162.2557 236° Southwest  Level FlightAware Approximate
02:29AM -28.3361 162.1543 236° Southwest  Level FlightAware Approximate
02:30AM -28.3964 162.0526 236° Southwest  Level FlightAware Approximate
02:31AM -28.4567 161.9509 236° Southwest  Level FlightAware Approximate
02:32AM -28.5169 161.8491 236° Southwest  Level FlightAware Approximate
02:33AM -28.5770 161.7471 236° Southwest  Level FlightAware Approximate
02:34AM -28.6371 161.6451 236° Southwest  Level FlightAware Approximate
02:35AM -28.6970 161.5429 236° Southwest  Level FlightAware Approximate
02:36AM -28.7569 161.4406 236° Southwest  Level FlightAware Approximate
02:37AM -28.8167 161.3382 236° Southwest  Level FlightAware Approximate
02:38AM -28.8765 161.2357 236° Southwest  Level FlightAware Approximate
02:39AM -28.9361 161.1330 236° Southwest  Level FlightAware Approximate
02:40AM -28.9957 161.0302 236° Southwest  Level FlightAware Approximate
02:41AM -29.0552 160.9274 236° Southwest  Level FlightAware Approximate
02:42AM -29.1146 160.8243 237° Southwest  Level FlightAware Approximate
02:43AM -29.1740 160.7212 237° Southwest  Level FlightAware Approximate
02:44AM -29.2333 160.6180 237° Southwest  Level FlightAware Approximate
02:45AM -29.2924 160.5146 237° Southwest  Level FlightAware Approximate
02:46AM -29.3516 160.4111 237° Southwest  Level FlightAware Approximate
02:47AM -29.4106 160.3075 237° Southwest  Level FlightAware Approximate
02:48AM -29.4695 160.2038 237° Southwest  Level FlightAware Approximate
02:49AM -29.5284 160.0999 237° Southwest  Level FlightAware Approximate
02:50AM -29.5872 159.9960 237° Southwest  Level FlightAware Approximate
02:51AM -29.6459 159.8919 237° Southwest  Level FlightAware Approximate
02:52AM -29.7045 159.7877 237° Southwest  Level FlightAware Approximate
02:53AM -29.7631 159.6833 237° Southwest  Level FlightAware Approximate
02:54AM -29.8215 159.5789 237° Southwest  Level FlightAware Approximate
02:55AM -29.8799 159.4743 237° Southwest  Level FlightAware Approximate
02:56AM -29.9382 159.3696 237° Southwest  Level FlightAware Approximate
02:57AM -29.9964 159.2648 237° Southwest  Level FlightAware Approximate
02:58AM -30.0546 159.1599 237° Southwest  Level FlightAware Approximate
02:59AM -30.1126 159.0548 237° Southwest  Level FlightAware Approximate
03:00AM -30.1706 158.9496 237° Southwest  Level FlightAware Approximate
03:01AM -30.2284 158.8443 238° Southwest  Level FlightAware Approximate
03:02AM -30.2862 158.7388 238° Southwest  Level FlightAware Approximate
03:03AM -30.3440 158.6333 238° Southwest  Level FlightAware Approximate
03:04AM -30.4016 158.5276 238° Southwest  Level FlightAware Approximate
03:05AM -30.4591 158.4218 238° Southwest  Level FlightAware Approximate
03:06AM -30.5166 158.3159 238° Southwest  Level FlightAware Approximate
03:07AM -30.5739 158.2098 238° Southwest  Level FlightAware Approximate
03:08AM -30.6312 158.1036 238° Southwest  Level FlightAware Approximate
03:09AM -30.6884 157.9973 238° Southwest  Level FlightAware Approximate
03:10AM -30.7455 157.8909 238° Southwest  Level FlightAware Approximate
03:11AM -30.8025 157.7843 238° Southwest  Level FlightAware Approximate
03:12AM -30.8595 157.6776 238° Southwest  Level FlightAware Approximate
03:13AM -30.9163 157.5708 238° Southwest  Level FlightAware Approximate
03:14AM -30.9731 157.4638 238° Southwest  Level FlightAware Approximate
03:15AM -31.0356 157.3619 228° Southwest  Level FlightAware Approximate
03:16AM -31.1078 157.2683 228° Southwest  Level FlightAware Approximate
03:17AM -31.1799 157.1746 228° Southwest  Level FlightAware Approximate
03:18AM -31.2520 157.0808 228° Southwest  Level FlightAware Approximate
03:19AM -31.3240 156.9868 228° Southwest  Level FlightAware Approximate
03:20AM -31.3959 156.8927 228° Southwest  Level FlightAware Approximate
03:21AM -31.4678 156.7984 228° Southwest  Level FlightAware Approximate
03:22AM -31.5396 156.7040 228° Southwest  Level FlightAware Approximate
03:23AM -31.6113 156.6094 228° Southwest  Level FlightAware Approximate
03:24AM -31.6829 156.5147 228° Southwest  Level FlightAware Approximate
03:25AM -31.7545 156.4198 228° Southwest  Level FlightAware Approximate
03:26AM -31.8260 156.3248 228° Southwest  Level FlightAware Approximate
03:27AM -31.8975 156.2297 228° Southwest  Level FlightAware Approximate
03:27AM -33.0150 155.9828 228° Southwest 410 472 38,300  Level Aus ATC (RADAR)
03:27AM -33.0320 155.9520 234° Southwest 391 450 38,000  Descending FlightAware
03:27AM -33.0486 155.9283 234° Southwest 387 445 38,300  Climbing Aus ATC (RADAR)
03:28AM -33.0810 155.8830 230° Southwest 391 450 38,000 -240 Descending FlightAware
03:29AM -33.1400 155.8000 230° Southwest 390 449 38,000  Level FlightAware
03:29AM -33.1960 155.7210 230° Southwest 389 448 38,000  Level FlightAware
03:30AM -33.2370 155.6620 230° Southwest 387 445 38,000 300 Level FlightAware
03:30AM -33.2733 155.6156 230° Southwest 397 457 38,300  Climbing Aus ATC (RADAR)
03:31AM -33.2860 155.5920 230° Southwest 386 444 38,000  Descending FlightAware
03:31AM -33.3152 155.5510 230° Southwest 380 437 38,300  Climbing Aus ATC (RADAR)
03:32AM -33.3520 155.4990 230° Southwest 385 443 38,000 -300 Descending FlightAware
03:32AM -33.3900 155.4440 230° Southwest 382 440 38,000 360 Level FlightAware
03:33AM -33.4164 155.4054 230° Southwest 378 435 38,300  Climbing Aus ATC (RADAR)
03:33AM -33.4430 155.3680 230° Southwest 380 437 38,000 -300 Descending FlightAware
03:34AM -33.4840 155.3110 229° Southwest 380 437 38,000  Level FlightAware
03:34AM -33.5220 155.2560 230° Southwest 380 437 38,000 180 Level FlightAware
03:35AM -33.5850 155.1628 230° Southwest 377 434 38,300  Climbing Aus ATC (RADAR)
03:35AM -33.5850 155.1650 230° Southwest 382 440 38,000 -360 Descending FlightAware
03:36AM -33.6360 155.0910 230° Southwest 383 441 38,000  Level FlightAware
03:37AM -33.6890 155.0150 230° Southwest 384 442 38,000  Level FlightAware
03:37AM -33.7220 154.9670 230° Southwest 385 443 38,000  Level FlightAware
03:38AM -33.7680 154.9010 230° Southwest 385 443 38,000 240 Level FlightAware
03:38AM -33.8117 154.8346 230° Southwest 386 444 38,300  Climbing Aus ATC (RADAR)
03:39AM -33.8170 154.8310 230° Southwest 385 443 38,000 -300 Descending FlightAware
03:39AM -33.8760 154.7430 231° Southwest 389 448 38,000 240 Level FlightAware
03:40AM -33.9203 154.6773 231° Southwest 387 445 38,300  Climbing Aus ATC (RADAR)
03:40AM -33.9290 154.6660 231° Southwest 384 442 38,000 -360 Descending FlightAware
03:41AM -33.9750 154.5980 231° Southwest 381 438 38,000  Level FlightAware
03:42AM -34.0200 154.5330 230° Southwest 380 437 38,000  Level FlightAware
03:42AM -34.0650 154.4660 231° Southwest 380 437 38,000  Level FlightAware
03:43AM -34.1130 154.3970 230° Southwest 380 437 38,000 240 Level FlightAware
03:43AM -34.1438 154.3502 230° Southwest 379 436 38,300 480 Climbing Aus ATC (RADAR)
03:44AM -34.1607 154.3253 231° Southwest 381 438 38,300 -600 Level Aus ATC (RADAR)
03:44AM -34.1760 154.3040 231° Southwest 381 438 38,000  Descending FlightAware
03:44AM -34.1999 154.2679 231° Southwest 381 438 38,300  Climbing Aus ATC (RADAR)
03:45AM -34.2220 154.2360 231° Southwest 383 441 38,000 -300 Descending FlightAware
03:45AM -34.2610 154.1670 231° Southwest 379 436 38,000 420 Level FlightAware
03:45AM -34.2658 154.1549 231° Southwest 390 449 38,300  Climbing Aus ATC (RADAR)
03:46AM -34.2650 154.1320 262° West 381 438 38,000  Descending FlightAware
03:46AM -34.2532 154.0389 262° West 372 428 38,300  Climbing Aus ATC (RADAR)
03:46AM -34.2560 154.0430 262° West 384 442 38,000 -420 Descending FlightAware
03:47AM -34.2440 153.9430 278° West 385 443 38,000  Level FlightAware
03:48AM -34.2350 153.8550 277° West 386 444 38,000  Level FlightAware
03:48AM -34.2270 153.7830 278° West 387 445 38,000 300 Level FlightAware
03:49AM -34.2212 153.7337 278° West 371 427 38,300  Climbing Aus ATC (RADAR)
03:49AM -34.2150 153.6800 278° West 386 444 38,000 -480 Descending FlightAware
03:50AM -34.2060 153.6040 278° West 365 420 37,800 -1,320 Descending FlightAware
03:50AM -34.1970 153.5240 278° West 363 418 36,400 -2,160 Descending FlightAware
03:50AM -34.1955 153.5068 278° West 355 409 36,400 -1,320 Level Aus ATC (RADAR)
03:51AM -34.1921 153.4767 278° West 355 409 36,000 -1,860 Descending Aus ATC (RADAR)
03:51AM -34.1850 153.4250 278° West 375 432 35,000 -1,800 Descending FlightAware
03:52AM -34.1760 153.3400 277° West 376 433 33,900 -1,500 Descending FlightAware
03:52AM -34.1700 153.2965 277° West 372 428 33,600 -1,800 Descending Aus ATC (RADAR)
03:52AM -34.1650 153.2550 277° West 375 432 32,700 -1,680 Descending FlightAware
03:53AM -34.1540 153.1600 278° West 379 436 31,700 -1,260 Descending FlightAware
03:54AM -34.1473 153.1027 278° West 369 425 31,300 -1,080 Descending Aus ATC (RADAR)
03:54AM -34.1437 153.0716 278° West 367 422 31,000 -2,280 Descending Aus ATC (RADAR)
03:54AM -34.1440 153.0770 278° West 377 434 30,700 -1,560 Descending FlightAware
03:54AM -34.1347 152.9994 278° West 365 420 30,100 -1,380 Descending Aus ATC (RADAR)
03:55AM -34.1340 152.9880 278° West 374 430 29,700 -1,680 Descending FlightAware
03:55AM -34.1240 152.9040 278° West 368 423 28,700 -1,500 Descending FlightAware
03:56AM -34.1182 152.8628 278° West 362 417 28,300 -1,680 Descending Aus ATC (RADAR)
03:56AM -34.1132 152.8227 279° West 359 413 27,700 -2,100 Descending Aus ATC (RADAR)
03:56AM -34.1120 152.8140 279° West 359 413 27,300 -1,920 Descending FlightAware
03:56AM -34.1049 152.7539 279° West 353 406 26,600 -2,100 Descending Aus ATC (RADAR)
03:57AM -34.1030 152.7320 279° West 353 406 25,900 -2,040 Descending FlightAware
03:57AM -34.0930 152.6560 279° West 347 399 24,800 -1,620 Descending FlightAware
03:58AM -34.0839 152.5751 279° West 338 389 23,800 -1,740 Descending Aus ATC (RADAR)
03:58AM -34.0830 152.5760 279° West 345 397 23,500 -1,860 Descending FlightAware
03:59AM -34.0760 152.4990 276° West 349 402 22,400 -1,800 Descending FlightAware
04:00AM -34.0670 152.4060 277° West 341 392 21,000 -1,800 Descending FlightAware
04:00AM -34.0600 152.3350 277° West 333 383 19,900 -1,620 Descending FlightAware
04:01AM -34.0560 152.2887 277° West 330 380 19,400 -1,620 Descending Aus ATC (RADAR)
04:01AM -34.0529 152.2559 276° West 322 371 18,900 -2,100 Descending Aus ATC (RADAR)
04:01AM -34.0530 152.2620 276° West 329 379 18,700 -1,560 Descending FlightAware
04:01AM -34.0474 152.1925 276° West 321 369 18,000 -1,680 Descending Aus ATC (RADAR)
04:02AM -34.0460 152.1870 276° West 326 375 17,600 -1,740 Descending FlightAware
04:02AM -34.0390 152.1130 276° West 320 368 16,500 -1,560 Descending FlightAware
04:03AM -34.0300 152.0280 277° West 308 354 15,300 -1,440 Descending FlightAware
04:04AM -34.0250 151.9670 276° West 298 343 14,500 -1,140 Descending FlightAware
04:04AM -34.0212 151.9265 276° West 290 334 14,200 -1,500 Descending Aus ATC (RADAR)
04:04AM -34.0180 151.8980 276° West 296 341 13,500 -1,560 Descending FlightAware
04:05AM -34.0110 151.8320 277° West 302 348 12,600 -1,320 Descending FlightAware
04:06AM -34.0015 151.7408 277° West 298 343 11,600 -1,440 Descending Aus ATC (RADAR)
04:06AM -34.0010 151.7330 277° West 302 348 11,200 -1,560 Descending FlightAware
04:07AM -33.9933 151.6572 277° West 302 348 10,300 -1,680 Descending Aus ATC (RADAR)
04:07AM -33.9940 151.6610 277° West 304 350 10,100 -2,040 Descending FlightAware
04:07AM -33.9890 151.6140 277° West 303 349 9,300 -1,320 Descending FlightAware
04:08AM -33.9839 151.5657 277° West 298 343 8,900 -1,440 Descending Aus ATC (RADAR)
04:08AM -33.9840 151.5650 277° West 298 343 8,600 -2,040 Descending FlightAware
04:08AM -33.9790 151.5240 278° West 296 341 7,900 -1,380 Descending FlightAware
04:08AM -33.9760 151.4960 277° West 284 327 7,700 -1,080 Descending FlightAware
04:09AM -33.9720 151.4580 277° West 271 312 7,100 -960 Descending FlightAware
04:10AM -33.9660 151.4000 277° West 255 293 6,600 -900 Descending FlightAware
04:10AM -33.9640 151.3780 276° West 256 295 6,300 -840 Descending FlightAware
04:10AM -33.9590 151.3350 278° West 252 290 6,000 -600 Descending FlightAware
04:11AM -33.9560 151.3030 276° West 246 283 5,800  Descending FlightAware
04:11AM -33.9511 151.2666 276° West 241 277 6,000 -240 Climbing Aus ATC (RADAR)
04:11AM -33.9500 151.2660 276° West 244 281 5,700 -720 Descending FlightAware
04:11AM -33.9370 151.2500 314° West 246 283 5,700  Level FlightAware
04:12AM -33.9140 151.2450 350° North 242 278 5,700  Level FlightAware
04:12AM -33.8880 151.2470 North 251 289 5,700 -360 Level FlightAware
04:13AM -33.8520 151.2490 North 251 289 5,400 -660 Descending FlightAware
04:13AM -33.8250 151.2510 North 252 290 5,100 -600 Descending FlightAware
04:13AM -33.7949 151.2533 North 250 288 5,000 -1,200 Descending Aus ATC (RADAR)
04:13AM -33.7990 151.2530 North 252 290 4,700 -960 Descending FlightAware
04:14AM -33.7342 151.2474 North 258 297 4,200 -660 Descending Aus ATC (RADAR)
04:15AM -33.7230 151.2314 310° West 260 299 4,000 -1,080 Descending Aus ATC (RADAR)
04:15AM -33.7230 151.2250 310° West 240 276 3,700 -1,080 Descending FlightAware
04:15AM -33.7220 151.2160 278° West 238 274 3,700 -480 Level FlightAware
04:15AM -33.7300 151.1880 251° West 226 260 3,500 -720 Descending FlightAware
04:15AM -33.7430 151.1780 213° Southwest 224 258 3,300 -180 Descending FlightAware
04:16AM -33.7690 151.1664 213° Southwest 216 249 3,400 -600 Climbing Aus ATC (RADAR)
04:16AM -33.7720 151.1650 213° Southwest 194 223 3,000 -1,380 Descending FlightAware
04:16AM -33.7920 151.1560 201° Southwest 193 222 2,700 -780 Descending FlightAware
04:17AM -33.8050 151.1540 187° South 177 204 2,500 -840 Descending FlightAware
04:17AM -33.8310 151.1570 175° South 181 208 2,100 -900 Descending FlightAware
04:17AM -33.8500 151.1620 168° South 167 192 1,700 -900 Descending FlightAware
04:18AM -33.8720 151.1680 167° South 152 175 1,300 -780 Descending FlightAware
04:18AM -33.8880 151.1720 168° South 147 169 1,000 -720 Descending FlightAware
04:19AM -33.9050 151.1770 166° South 131 151 700 -780 Descending FlightAware
04:19AM -33.9220 151.1810 169° South 136 157 300 -480 Descending FlightAware
04:20AM -33.9467 151.1878 169° South 134 154 200 -180 Descending Aus ATC (RADAR)